createdAt,value
2018-06-04T00:00:40.774Z,59.06
2018-06-04T00:03:10.594Z,59.39
2018-06-04T00:05:40.260Z,61.67
2018-06-04T00:08:09.934Z,59.72
2018-06-04T00:10:39.652Z,59.29
2018-06-04T00:13:09.431Z,59.21
2018-06-04T00:15:39.202Z,61.15
2018-06-04T00:18:08.992Z,59.84
2018-06-04T00:20:38.768Z,59.57
2018-06-04T00:23:08.541Z,59.21
2018-06-04T00:25:38.364Z,59.69
2018-06-04T00:28:08.087Z,60.29
2018-06-04T00:30:37.743Z,59.91
2018-06-04T00:33:07.475Z,59.22
2018-06-04T00:35:37.306Z,58.89
2018-06-04T00:38:07.085Z,58.70
2018-06-04T00:40:37.091Z,58.84
2018-06-04T00:43:06.907Z,58.72
2018-06-04T00:45:36.651Z,60.30
2018-06-04T00:48:06.364Z,59.52
2018-06-04T00:50:36.034Z,59.04
2018-06-04T00:53:05.921Z,58.86
2018-06-04T00:55:45.461Z,59.77
2018-06-04T00:58:15.195Z,59.73
2018-06-04T01:00:44.935Z,59.54
2018-06-04T01:03:14.579Z,59.80
2018-06-04T01:05:44.437Z,62.90
2018-06-04T01:08:14.153Z,63.54
2018-06-04T01:10:43.878Z,61.75
2018-06-04T01:13:13.605Z,60.40
2018-06-04T01:15:43.234Z,59.79
2018-06-04T01:18:13.032Z,60.97
2018-06-04T01:20:42.763Z,59.54
2018-06-04T01:23:12.549Z,61.63
2018-06-04T01:25:42.280Z,60.93
2018-06-04T01:28:12.173Z,61.36
2018-06-04T01:30:41.958Z,60.93
2018-06-04T01:33:11.784Z,60.30
2018-06-04T01:35:41.573Z,59.88
2018-06-04T01:38:11.416Z,60.80
2018-06-04T01:40:41.677Z,62.02
2018-06-04T01:43:11.462Z,60.76
2018-06-04T01:45:41.126Z,60.50
2018-06-04T01:48:10.855Z,60.07
2018-06-04T01:50:40.590Z,61.80
2018-06-04T01:53:10.262Z,61.28
2018-06-04T01:55:39.985Z,60.59
2018-06-04T01:58:09.834Z,60.95
2018-06-04T02:00:39.480Z,62.95
2018-06-04T02:03:09.201Z,64.54
2018-06-04T02:05:39.055Z,62.13
2018-06-04T02:08:08.781Z,63.07
2018-06-04T02:10:38.524Z,61.41
2018-06-04T02:13:08.236Z,60.46
2018-06-04T02:15:37.925Z,59.64
2018-06-04T02:18:07.617Z,60.99
2018-06-04T02:20:37.444Z,61.57
2018-06-04T02:23:07.262Z,62.63
2018-06-04T02:25:36.952Z,62.96
2018-06-04T02:28:06.598Z,62.94
2018-06-04T02:30:36.383Z,61.40
2018-06-04T02:33:06.247Z,61.75
2018-06-04T02:35:35.985Z,61.96
2018-06-04T02:38:05.797Z,61.54
2018-06-04T02:40:35.542Z,60.92
2018-06-04T02:43:05.751Z,60.78
2018-06-04T02:45:35.522Z,61.28
2018-06-04T02:48:05.655Z,62.31
2018-06-04T02:50:35.459Z,62.64
2018-06-04T02:53:05.143Z,61.86
2018-06-04T02:55:34.875Z,64.37
2018-06-04T02:58:04.592Z,66.94
2018-06-04T03:00:34.302Z,66.84
2018-06-04T03:03:04.024Z,66.34
2018-06-04T03:05:33.853Z,65.67
2018-06-04T03:08:03.575Z,64.62
2018-06-04T03:10:33.382Z,67.01
2018-06-04T03:13:02.982Z,67.42
2018-06-04T03:15:32.695Z,66.28
2018-06-04T03:18:02.338Z,65.57
2018-06-04T03:20:32.060Z,66.17
2018-06-04T03:23:01.825Z,65.56
2018-06-04T03:25:31.395Z,65.45
2018-06-04T03:28:00.915Z,65.76
2018-06-04T03:30:30.638Z,64.66
2018-06-04T03:33:00.435Z,65.81
2018-06-04T03:35:30.222Z,63.19
2018-06-04T03:38:00.022Z,61.53
2018-06-04T03:40:29.746Z,62.73
2018-06-04T03:42:59.435Z,61.92
2018-06-04T03:45:29.537Z,62.48
2018-06-04T03:47:59.353Z,65.80
2018-06-04T03:50:29.286Z,64.20
2018-06-04T03:52:58.993Z,65.00
2018-06-04T03:55:28.790Z,64.03
2018-06-04T03:57:58.532Z,64.30
2018-06-04T04:00:28.130Z,64.37
2018-06-04T04:02:57.814Z,64.19
2018-06-04T04:05:27.433Z,64.29
2018-06-04T04:07:57.315Z,62.48
2018-06-04T04:10:27.004Z,63.12
2018-06-04T04:12:56.851Z,64.61
2018-06-04T04:15:26.514Z,65.99
2018-06-04T04:17:56.203Z,66.05
2018-06-04T04:20:25.994Z,63.71
2018-06-04T04:22:55.748Z,62.19
2018-06-04T04:25:25.544Z,63.55
2018-06-04T04:27:55.280Z,62.53
2018-06-04T04:30:25.079Z,62.48
2018-06-04T04:32:54.959Z,64.34
2018-06-04T04:35:24.811Z,61.70
2018-06-04T04:37:54.538Z,62.08
2018-06-04T04:40:24.335Z,61.53
2018-06-04T04:42:54.074Z,60.68
2018-06-04T04:45:23.851Z,60.00
2018-06-04T04:47:53.961Z,59.62
2018-06-04T04:50:23.779Z,59.03
2018-06-04T04:52:53.582Z,59.38
2018-06-04T04:55:23.408Z,58.10
2018-06-04T04:57:53.210Z,59.37
2018-06-04T05:00:22.997Z,60.22
2018-06-04T05:02:52.779Z,58.74
2018-06-04T05:05:22.667Z,61.35
2018-06-04T05:07:52.503Z,62.61
2018-06-04T05:10:22.385Z,64.06
2018-06-04T05:12:52.235Z,64.84
2018-06-04T05:15:22.050Z,64.26
2018-06-04T05:18:54.704Z,62.21
2018-06-04T05:21:24.455Z,61.51
2018-06-04T05:23:54.274Z,62.76
2018-06-04T05:26:24.510Z,63.77
2018-06-04T05:28:54.383Z,63.80
2018-06-04T05:31:24.218Z,67.19
2018-06-04T05:33:54.052Z,65.76
2018-06-04T05:36:23.984Z,65.91
2018-06-04T05:38:53.881Z,66.02
2018-06-04T05:41:23.764Z,65.19
2018-06-04T05:43:53.564Z,63.98
2018-06-04T05:46:23.416Z,66.57
2018-06-04T05:48:53.313Z,66.35
2018-06-04T05:51:23.125Z,63.13
2018-06-04T05:53:52.805Z,64.92
2018-06-04T05:56:22.659Z,63.44
2018-06-04T05:58:52.356Z,62.09
2018-06-04T06:01:22.284Z,62.41
2018-06-04T06:03:52.094Z,59.74
2018-06-04T06:06:21.899Z,61.81
2018-06-04T06:08:51.795Z,59.11
2018-06-04T06:11:21.586Z,59.98
2018-06-04T06:13:51.812Z,58.53
2018-06-04T06:16:21.526Z,57.77
2018-06-04T06:18:51.325Z,55.78
2018-06-04T06:21:21.050Z,55.41
2018-06-04T06:23:50.940Z,54.36
2018-06-04T06:26:23.703Z,52.90
2018-06-04T06:28:53.498Z,52.57
2018-06-04T06:31:23.242Z,51.92
2018-06-04T06:33:52.934Z,51.31
2018-06-04T06:36:24.062Z,49.03
2018-06-04T06:38:53.855Z,47.34
2018-06-04T06:41:23.714Z,47.20
2018-06-04T06:43:53.561Z,45.42
2018-06-04T06:46:24.063Z,45.64
2018-06-04T06:48:53.782Z,45.76
2018-06-04T06:51:23.717Z,45.46
2018-06-04T06:53:53.787Z,45.43
2018-06-04T06:56:25.054Z,48.15
2018-06-04T06:58:55.587Z,46.91
2018-06-04T07:01:26.210Z,45.49
2018-06-04T07:03:56.913Z,44.48
2018-06-04T07:06:27.997Z,42.74
2018-06-04T07:08:58.422Z,43.13
2018-06-04T07:11:29.004Z,41.36
2018-06-04T07:13:59.477Z,42.26
2018-06-04T07:16:30.424Z,43.11
2018-06-04T07:19:00.614Z,42.20
2018-06-04T07:21:31.046Z,40.65
2018-06-04T07:24:01.573Z,42.13
2018-06-04T07:26:32.320Z,41.83
2018-06-04T07:29:02.941Z,41.98
2018-06-04T07:31:33.067Z,42.60
2018-06-04T07:34:03.323Z,40.51
2018-06-04T07:36:34.735Z,40.42
2018-06-04T07:39:05.087Z,40.61
2018-06-04T07:41:35.688Z,40.66
2018-06-04T07:44:06.080Z,41.39
2018-06-04T07:46:36.934Z,40.56
2018-06-04T07:49:07.534Z,40.32
2018-06-04T07:51:37.930Z,39.94
2018-06-04T07:54:08.467Z,39.97
2018-06-04T07:56:39.793Z,37.84
2018-06-04T07:59:10.381Z,37.48
2018-06-04T08:01:41.103Z,37.64
2018-06-04T08:04:11.827Z,38.19
2018-06-04T08:06:42.562Z,38.64
2018-06-04T08:09:12.861Z,36.17
2018-06-04T08:11:42.837Z,33.41
2018-06-04T08:14:13.168Z,35.11
2018-06-04T08:16:43.749Z,33.79
2018-06-04T08:19:14.307Z,34.67
2018-06-04T08:21:44.549Z,33.74
2018-06-04T08:24:14.957Z,33.00
2018-06-04T08:26:46.672Z,34.35
2018-06-04T08:29:17.090Z,32.86
2018-06-04T08:31:47.584Z,31.29
2018-06-04T08:34:17.881Z,32.17
2018-06-04T08:36:49.050Z,33.38
2018-06-04T08:39:19.674Z,33.26
2018-06-04T08:41:50.171Z,35.00
2018-06-04T08:44:20.900Z,32.97
2018-06-04T08:46:52.029Z,33.27
2018-06-04T08:49:22.205Z,32.73
2018-06-04T08:51:53.154Z,30.60
2018-06-04T08:54:23.502Z,30.47
2018-06-04T08:56:54.404Z,32.95
2018-06-04T08:59:24.789Z,32.31
2018-06-04T09:01:54.902Z,32.80
2018-06-04T09:04:25.525Z,31.61
2018-06-04T09:06:56.053Z,29.87
2018-06-04T09:09:26.544Z,29.60
2018-06-04T09:11:57.437Z,29.05
2018-06-04T09:14:27.996Z,29.77
2018-06-04T09:16:59.323Z,28.50
2018-06-04T09:19:29.721Z,26.60
2018-06-04T09:22:00.118Z,27.23
2018-06-04T09:24:30.533Z,26.70
2018-06-04T09:27:01.212Z,26.75
2018-06-04T09:29:31.436Z,27.31
2018-06-04T09:32:01.998Z,26.79
2018-06-04T09:34:32.443Z,25.64
2018-06-04T09:37:03.408Z,26.55
2018-06-04T09:39:33.847Z,26.06
2018-06-04T09:42:04.299Z,26.87
2018-06-04T09:44:34.903Z,25.46
2018-06-04T09:47:06.300Z,25.09
2018-06-04T09:49:36.823Z,30.30
2018-06-04T09:52:07.648Z,30.54
2018-06-04T09:54:38.348Z,28.50
2018-06-04T09:57:08.886Z,25.62
2018-06-04T09:59:39.415Z,26.95
2018-06-04T10:02:09.932Z,28.44
2018-06-04T10:04:40.340Z,29.95
2018-06-04T10:07:11.461Z,27.86
2018-06-04T10:09:41.771Z,28.10
2018-06-04T10:12:11.837Z,27.34
2018-06-04T10:14:42.520Z,27.48
2018-06-04T10:17:13.678Z,25.17
2018-06-04T10:19:44.040Z,25.04
2018-06-04T10:22:14.351Z,25.46
2018-06-04T10:24:44.879Z,26.07
2018-06-04T10:27:15.831Z,25.69
2018-06-04T10:29:46.342Z,25.99
2018-06-04T10:32:16.490Z,25.51
2018-06-04T10:34:47.255Z,25.92
2018-06-04T10:37:18.509Z,25.72
2018-06-04T10:39:48.902Z,23.50
2018-06-04T10:42:19.258Z,22.68
2018-06-04T10:44:49.669Z,22.64
2018-06-04T10:47:20.668Z,22.73
2018-06-04T10:49:51.031Z,22.37
2018-06-04T10:52:21.686Z,23.92
2018-06-04T10:54:52.123Z,25.34
2018-06-04T10:57:22.759Z,25.89
2018-06-04T10:59:53.169Z,25.43
2018-06-04T11:02:23.549Z,24.42
2018-06-04T11:04:53.956Z,24.41
2018-06-04T11:07:24.959Z,22.21
2018-06-04T11:09:55.264Z,25.67
2018-06-04T11:12:25.790Z,26.50
2018-06-04T11:14:56.293Z,24.75
2018-06-04T11:17:27.101Z,24.07
2018-06-04T11:19:57.545Z,24.30
2018-06-04T11:22:27.919Z,24.32
2018-06-04T11:24:58.398Z,22.92
2018-06-04T11:27:29.422Z,23.85
2018-06-04T11:29:59.866Z,23.07
2018-06-04T11:32:30.289Z,23.01
2018-06-04T11:35:00.919Z,22.73
2018-06-04T11:37:31.081Z,22.13
2018-06-04T11:40:01.491Z,22.25
2018-06-04T11:42:32.038Z,20.62
2018-06-04T11:45:02.562Z,20.08
2018-06-04T11:47:33.864Z,19.26
2018-06-04T11:50:04.414Z,20.22
2018-06-04T11:52:35.391Z,18.84
2018-06-04T11:55:05.910Z,19.67
2018-06-04T11:57:37.354Z,20.24
2018-06-04T12:00:08.447Z,20.16
2018-06-04T12:02:38.907Z,18.70
2018-06-04T12:05:09.653Z,20.87
2018-06-04T12:07:40.694Z,22.10
2018-06-04T12:10:11.182Z,22.14
2018-06-04T12:12:41.945Z,23.04
2018-06-04T12:15:12.409Z,24.08
2018-06-04T12:17:43.988Z,23.75
2018-06-04T12:20:14.318Z,24.84
2018-06-04T12:22:44.526Z,26.30
2018-06-04T12:25:15.078Z,25.91
2018-06-04T12:27:46.389Z,26.36
2018-06-04T12:30:16.870Z,26.39
2018-06-04T12:32:47.261Z,27.12
2018-06-04T12:35:17.529Z,28.20
2018-06-04T12:37:48.058Z,27.81
2018-06-04T12:40:18.649Z,27.46
2018-06-04T12:42:49.203Z,27.49
2018-06-04T12:45:19.725Z,29.16
2018-06-04T12:47:50.853Z,29.83
2018-06-04T12:50:21.210Z,30.08
2018-06-04T12:52:52.043Z,30.64
2018-06-04T12:55:22.371Z,31.55
2018-06-04T12:57:53.043Z,32.32
2018-06-04T13:00:23.709Z,33.31
2018-06-04T13:02:53.745Z,33.14
2018-06-04T13:05:23.897Z,33.73
2018-06-04T13:07:54.582Z,32.22
2018-06-04T13:10:25.040Z,33.06
2018-06-04T13:12:55.278Z,33.70
2018-06-04T13:15:26.005Z,35.78
2018-06-04T13:17:56.757Z,36.36
2018-06-04T13:20:27.308Z,36.03
2018-06-04T13:22:57.634Z,35.96
2018-06-04T13:25:27.971Z,35.43
2018-06-04T13:27:58.638Z,35.21
2018-06-04T13:30:29.132Z,35.09
2018-06-04T13:32:59.628Z,36.34
2018-06-04T13:35:30.008Z,36.45
2018-06-04T13:38:00.634Z,35.71
2018-06-04T13:40:30.974Z,37.48
2018-06-04T13:43:01.384Z,36.88
2018-06-04T13:45:31.706Z,35.05
2018-06-04T13:48:02.944Z,34.24
2018-06-04T13:50:33.447Z,33.33
2018-06-04T13:53:04.142Z,34.48
2018-06-04T13:55:34.644Z,33.18
2018-06-04T13:58:05.770Z,34.75
2018-06-04T14:00:36.383Z,35.10
2018-06-04T14:03:06.817Z,36.34
2018-06-04T14:05:37.398Z,36.11
2018-06-04T14:08:07.898Z,36.84
2018-06-04T14:10:38.131Z,36.51
2018-06-04T14:13:08.820Z,36.49
2018-06-04T14:15:39.385Z,36.55
2018-06-04T14:18:10.360Z,37.91
2018-06-04T14:20:40.942Z,37.22
2018-06-04T14:23:11.026Z,37.46
2018-06-04T14:25:41.680Z,38.51
2018-06-04T14:28:12.289Z,37.16
2018-06-04T14:30:42.872Z,38.45
2018-06-04T14:33:13.712Z,35.95
2018-06-04T14:35:44.339Z,35.77
2018-06-04T14:38:15.767Z,36.30
2018-06-04T14:40:46.310Z,36.84
2018-06-04T14:43:16.446Z,36.97
2018-06-04T14:45:46.837Z,35.63
2018-06-04T14:48:17.960Z,37.61
2018-06-04T14:50:48.676Z,37.60
2018-06-04T14:53:19.670Z,36.57
2018-06-04T14:55:50.275Z,37.40
2018-06-04T14:58:21.971Z,36.10
2018-06-04T15:00:52.117Z,37.29
2018-06-04T15:03:22.683Z,36.67
2018-06-04T15:05:53.489Z,36.63
2018-06-04T15:08:24.590Z,35.60
2018-06-04T15:10:54.972Z,36.20
2018-06-04T15:13:25.432Z,36.92
2018-06-04T15:15:56.359Z,36.73
2018-06-04T15:18:28.125Z,36.18
2018-06-04T15:20:58.542Z,36.04
2018-06-04T15:23:28.949Z,37.77
2018-06-04T15:25:59.318Z,38.03
2018-06-04T15:28:30.408Z,37.72
2018-06-04T15:31:00.908Z,37.39
2018-06-04T15:33:31.476Z,38.18
2018-06-04T15:36:02.400Z,37.11
2018-06-04T15:38:33.135Z,37.55
2018-06-04T15:41:03.764Z,38.81
2018-06-04T15:43:34.264Z,39.22
2018-06-04T15:46:04.701Z,38.92
2018-06-04T15:48:35.231Z,39.00
2018-06-04T15:51:05.808Z,39.87
2018-06-04T15:53:36.428Z,39.61
2018-06-04T15:56:07.189Z,39.62
2018-06-04T15:58:38.530Z,39.48
2018-06-04T16:01:09.138Z,39.68
2018-06-04T16:03:39.737Z,40.37
2018-06-04T16:06:10.297Z,40.33
2018-06-04T16:08:41.348Z,40.20
2018-06-04T16:11:11.838Z,39.19
2018-06-04T16:13:42.396Z,38.46
2018-06-04T16:16:13.209Z,37.71
2018-06-04T16:18:44.220Z,38.78
2018-06-04T16:21:14.679Z,37.79
2018-06-04T16:23:45.258Z,38.90
2018-06-04T16:26:16.059Z,39.70
2018-06-04T16:28:47.582Z,40.75
2018-06-04T16:31:18.303Z,40.01
2018-06-04T16:33:48.973Z,40.06
2018-06-04T16:36:19.416Z,40.43
2018-06-04T16:38:50.618Z,40.09
2018-06-04T16:41:21.075Z,40.58
2018-06-04T16:43:51.244Z,40.91
2018-06-04T16:46:22.090Z,41.33
2018-06-04T16:48:52.816Z,43.70
2018-06-04T16:51:23.346Z,44.03
2018-06-04T16:53:53.894Z,44.44
2018-06-04T16:56:24.357Z,45.11
2018-06-04T16:58:55.140Z,44.51
2018-06-04T17:01:25.699Z,45.10
2018-06-04T17:03:56.118Z,45.59
2018-06-04T17:06:26.494Z,44.12
2018-06-04T17:08:56.804Z,43.85
2018-06-04T17:11:27.484Z,43.64
2018-06-04T17:13:57.912Z,45.07
2018-06-04T17:16:28.601Z,46.64
2018-06-04T17:18:59.646Z,47.01
2018-06-04T17:21:29.492Z,47.88
2018-06-04T17:23:59.211Z,46.54
2018-06-04T17:26:28.963Z,47.38
2018-06-04T17:28:58.781Z,47.28
2018-06-04T17:31:28.570Z,49.21
2018-06-04T17:33:58.274Z,48.60
2018-06-04T17:36:28.039Z,47.26
2018-06-04T17:38:57.797Z,48.13
2018-06-04T17:41:27.534Z,47.50
2018-06-04T17:43:57.345Z,46.73
2018-06-04T17:46:27.182Z,47.84
2018-06-04T17:48:56.884Z,46.82
2018-06-04T17:51:26.593Z,49.70
2018-06-04T17:53:56.581Z,48.09
2018-06-04T17:56:26.270Z,46.97
2018-06-04T17:58:55.973Z,48.53
2018-06-04T18:01:25.700Z,49.89
2018-06-04T18:03:55.550Z,51.77
2018-06-04T18:06:25.338Z,51.23
2018-06-04T18:08:55.054Z,51.28
2018-06-04T18:11:24.796Z,51.15
2018-06-04T18:13:54.540Z,49.19
2018-06-04T18:16:24.313Z,48.11
2018-06-04T18:18:54.022Z,48.12
2018-06-04T18:21:23.783Z,48.13
2018-06-04T18:23:53.431Z,48.00
2018-06-04T18:26:23.568Z,48.00
2018-06-04T18:28:54.365Z,48.21
2018-06-04T18:31:23.990Z,50.30
2018-06-04T18:33:53.625Z,48.81
2018-06-04T18:36:23.206Z,49.02
2018-06-04T18:38:53.045Z,48.96
2018-06-04T18:41:22.808Z,48.05
2018-06-04T18:43:52.596Z,48.66
2018-06-04T18:46:22.180Z,49.46
2018-06-04T18:48:51.907Z,51.23
2018-06-04T18:51:21.641Z,53.10
2018-06-04T18:53:51.368Z,53.45
2018-06-04T18:56:21.685Z,54.29
2018-06-04T18:58:51.510Z,52.86
2018-06-04T19:01:21.252Z,51.91
2018-06-04T19:03:50.991Z,50.79
2018-06-04T19:06:20.757Z,50.96
2018-06-04T19:08:50.432Z,52.24
2018-06-04T19:11:20.218Z,53.53
2018-06-04T19:13:50.018Z,53.39
2018-06-04T19:16:19.763Z,54.95
2018-06-04T19:18:49.579Z,54.49
2018-06-04T19:21:19.263Z,53.30
2018-06-04T19:23:49.010Z,51.71
2018-06-04T19:26:18.831Z,51.49
2018-06-04T19:28:48.716Z,50.78
2018-06-04T19:31:18.386Z,49.82
2018-06-04T19:33:48.231Z,49.71
2018-06-04T19:36:17.920Z,49.16
2018-06-04T19:38:47.767Z,49.09
2018-06-04T19:41:17.591Z,49.34
2018-06-04T19:43:47.648Z,49.29
2018-06-04T19:46:17.411Z,49.01
2018-06-04T19:48:47.319Z,48.49
2018-06-04T19:51:16.913Z,50.03
2018-06-04T19:53:46.640Z,49.45
2018-06-04T19:56:16.490Z,48.89
2018-06-04T19:58:46.472Z,49.29
2018-06-04T20:01:17.540Z,52.46
2018-06-04T20:03:47.292Z,52.48
2018-06-04T20:06:17.034Z,51.34
2018-06-04T20:09:50.291Z,50.65
2018-06-04T20:12:20.105Z,51.40
2018-06-04T20:14:49.856Z,51.76
2018-06-04T20:17:19.589Z,52.09
2018-06-04T20:19:49.419Z,52.16
2018-06-04T20:22:19.111Z,51.24
2018-06-04T20:24:48.850Z,52.30
2018-06-04T20:27:18.590Z,52.54
2018-06-04T20:29:48.388Z,51.80
2018-06-04T20:32:18.173Z,52.17
2018-06-04T20:34:47.949Z,51.14
2018-06-04T20:37:17.693Z,51.07
2018-06-04T20:39:47.440Z,51.87
2018-06-04T20:42:17.193Z,52.09
2018-06-04T20:44:47.025Z,53.43
2018-06-04T20:47:16.977Z,52.55
2018-06-04T20:49:46.750Z,52.68
2018-06-04T20:52:16.541Z,55.83
2018-06-04T20:54:46.233Z,56.17
2018-06-04T20:57:15.882Z,55.02
2018-06-04T20:59:45.809Z,54.98
2018-06-04T21:02:15.526Z,55.05
2018-06-04T21:04:45.254Z,53.88
2018-06-04T21:07:15.007Z,56.16
2018-06-04T21:09:44.660Z,54.27
2018-06-04T21:12:15.369Z,54.32
2018-06-04T21:14:46.604Z,55.90
2018-06-04T21:17:16.755Z,55.21
2018-06-04T21:19:46.477Z,55.57
2018-06-04T21:22:16.218Z,54.94
2018-06-04T21:24:45.945Z,54.74
2018-06-04T21:27:15.798Z,54.48
2018-06-04T21:29:45.569Z,53.64
2018-06-04T21:32:15.358Z,55.27
2018-06-04T21:34:45.212Z,53.44
2018-06-04T21:37:15.007Z,53.88
2018-06-04T21:39:44.667Z,55.16
2018-06-04T21:42:14.270Z,55.04
2018-06-04T21:44:43.886Z,54.45
2018-06-04T21:47:13.648Z,53.98
2018-06-04T21:49:43.315Z,53.77
2018-06-04T21:52:12.966Z,53.88
2018-06-04T21:54:42.613Z,55.38
2018-06-04T21:57:12.399Z,55.77
2018-06-04T21:59:42.131Z,55.72
2018-06-04T22:02:12.209Z,59.55
2018-06-04T22:04:42.133Z,57.42
2018-06-04T22:07:11.698Z,56.40
2018-06-04T22:09:41.534Z,55.33
2018-06-04T22:12:11.895Z,54.82
2018-06-04T22:14:41.680Z,55.54
2018-06-04T22:17:11.586Z,54.47
2018-06-04T22:19:41.383Z,54.49
2018-06-04T22:22:11.191Z,56.43
2018-06-04T22:24:41.045Z,59.62
2018-06-04T22:27:10.808Z,58.80
2018-06-04T22:29:40.722Z,59.07
2018-06-04T22:32:10.566Z,59.48
2018-06-04T22:34:40.140Z,58.74
2018-06-04T22:37:09.969Z,59.78
2018-06-04T22:39:39.735Z,60.38
2018-06-04T22:42:09.549Z,60.79
2018-06-04T22:44:39.321Z,59.76
2018-06-04T22:47:09.024Z,61.41
2018-06-04T22:49:38.700Z,60.84
2018-06-04T22:52:08.373Z,59.48
2018-06-04T22:54:38.246Z,59.27
2018-06-04T22:57:08.637Z,58.40
2018-06-04T22:59:39.071Z,57.87
2018-06-04T23:02:09.503Z,57.51
2018-06-04T23:04:40.173Z,57.68
2018-06-04T23:07:10.882Z,59.19
2018-06-04T23:09:41.479Z,59.38
2018-06-04T23:12:12.036Z,60.91
2018-06-04T23:14:42.558Z,58.43
2018-06-04T23:17:14.131Z,57.40
2018-06-04T23:19:44.325Z,58.45
2018-06-04T23:22:14.956Z,57.98
2018-06-04T23:24:45.326Z,57.27
2018-06-04T23:27:15.842Z,61.07
2018-06-04T23:29:45.522Z,60.91
2018-06-04T23:32:15.242Z,60.50
2018-06-04T23:34:45.080Z,58.11
2018-06-04T23:37:14.839Z,57.59
2018-06-04T23:39:44.557Z,57.94
2018-06-04T23:42:14.836Z,59.07
2018-06-04T23:44:45.183Z,57.87
2018-06-04T23:47:15.592Z,57.11
2018-06-04T23:49:45.849Z,57.02
2018-06-04T23:52:16.271Z,56.38
2018-06-04T23:54:46.830Z,56.91
2018-06-04T23:57:17.508Z,59.30
2018-06-04T23:59:47.998Z,60.70
